Terminal Aerodrome Forecast
Issued by NWS

Home | Current Version | Previous Version | Text Only | Print | Product List | Glossary On
Versions: 1 2 3 4 5 6 7 8 9 10 11 12 13 14 15 16
000
FTUS44 KLZK 261132
TAFHRO
TAF
KHRO 261132Z 2612/2712 14008KT P6SM SCT250
     FM261500 18010G18KT P6SM SCT040 BKN250
     FM262100 20012KT P6SM BKN050
     FM270100 19008KT P6SM BKN025 OVC050
     FM270800 18005KT 6SM BR BKN007 OVC015=

USA.gov is the U.S. government's official web portal to all federal, state and local government web resources and services.